Time;durP1;ratioP1;P1;durP2;ratioP2;P2;SDS_P1;SDS_P2;PMS_P1;PMS_P2;Temp;Humidity;BMP_temperature;BMP_pressure;BME280_temperature;BME280_humidity;BME280_pressure;Samples;Min_cycle;Max_cycle;Signal;HPM_P1;HPM_P2
2022/08/05 00:00:35;;;;;;;2.05;0.85;;;30.20;52.20;;;;;;10829996;32;20020;-71
2022/08/05 00:06:38;;;;;;;0.95;0.80;;;30.10;52.20;;;;;;10816959;33;20043;-71
2022/08/05 00:12:40;;;;;;;2.22;1.60;;;30.10;52.30;;;;;;10829747;33;20058;-71
2022/08/05 00:18:45;;;;;;;1.83;1.23;;;30.10;52.40;;;;;;10829990;33;20020;-71
2022/08/05 00:24:47;;;;;;;4.85;1.73;;;30.00;52.50;;;;;;10829833;33;20024;-72
2022/08/05 00:30:49;;;;;;;2.80;1.50;;;30.00;52.70;;;;;;10829691;33;20067;-71
2022/08/05 00:36:51;;;;;;;2.12;1.48;;;29.90;52.80;;;;;;10829484;33;20028;-71
2022/08/05 00:42:56;;;;;;;12.00;2.03;;;29.80;53.00;;;;;;10829382;33;20050;-71
2022/08/05 00:48:58;;;;;;;1.87;1.40;;;29.90;53.20;;;;;;10829294;32;20059;-71
2022/08/05 00:55:01;;;;;;;1.90;1.40;;;29.80;53.30;;;;;;10836343;32;20040;-72
2022/08/05 01:01:03;;;;;;;4.30;1.65;;;29.80;53.40;;;;;;10835965;32;20099;-71
2022/08/05 01:07:05;;;;;;;2.42;1.58;;;29.70;53.60;;;;;;10835892;32;20046;-71
2022/08/05 01:13:32;;;;;;;4.82;1.50;;;29.60;53.70;;;;;;10835537;32;20302;-72
2022/08/05 01:19:39;;;;;;;2.58;1.73;;;29.70;53.70;;;;;;10819837;32;20028;-71
2022/08/05 01:25:52;;;;;;;2.62;1.90;;;29.70;53.60;;;;;;10835160;32;20032;-71
2022/08/05 01:32:01;;;;;;;3.22;2.00;;;29.70;53.70;;;;;;10834832;32;20024;-71
2022/08/05 01:38:04;;;;;;;4.47;1.73;;;29.60;53.80;;;;;;10830599;33;20028;-71
2022/08/05 01:44:09;;;;;;;2.15;1.58;;;29.50;54.00;;;;;;10834444;32;20066;-71
2022/08/05 01:50:23;;;;;;;2.45;1.75;;;29.40;54.10;;;;;;10834332;32;20077;-71
2022/08/05 01:56:32;;;;;;;2.85;1.67;;;29.30;54.10;;;;;;10834166;32;20023;-71
2022/08/05 02:02:36;;;;;;;3.22;1.98;;;29.20;54.40;;;;;;10833320;32;20016;-71
2022/08/05 02:08:49;;;;;;;3.15;2.12;;;29.10;54.50;;;;;;10833838;32;20345;-71
2022/08/05 02:15:07;;;;;;;1.83;1.50;;;29.10;54.60;;;;;;10833491;32;20012;-71
2022/08/05 02:21:25;;;;;;;4.43;2.20;;;29.20;54.80;;;;;;10833347;32;20435;-71
2022/08/05 02:27:29;;;;;;;2.92;2.08;;;29.20;54.90;;;;;;10833028;32;20042;-71
2022/08/05 02:33:36;;;;;;;2.60;1.77;;;29.10;54.90;;;;;;10832540;32;20032;-71
2022/08/05 02:39:40;;;;;;;1.80;1.25;;;29.10;55.00;;;;;;10832444;32;20024;-71
2022/08/05 02:45:43;;;;;;;1.50;1.20;;;28.90;55.20;;;;;;10832230;32;20028;-71
2022/08/05 02:51:47;;;;;;;4.35;2.35;;;28.90;55.30;;;;;;10831971;32;20024;-71
2022/08/05 02:57:50;;;;;;;1.83;1.40;;;28.80;55.60;;;;;;10831814;32;20054;-71
2022/08/05 03:04:01;;;;;;;3.12;2.12;;;28.80;55.70;;;;;;10828034;32;20023;-71
2022/08/05 03:10:24;;;;;;;2.35;1.30;;;28.50;55.80;;;;;;10831363;32;20039;-71
2022/08/05 03:16:26;;;;;;;3.50;1.77;;;28.50;55.80;;;;;;10830942;32;20032;-71
2022/08/05 03:22:28;;;;;;;2.70;1.80;;;28.40;55.90;;;;;;10830797;32;20062;-71
2022/08/05 03:28:31;;;;;;;4.03;2.62;;;28.30;56.00;;;;;;10830580;32;20032;-71
2022/08/05 03:34:34;;;;;;;4.45;2.47;;;28.40;56.20;;;;;;10830624;32;20024;-71
2022/08/05 03:41:12;;;;;;;3.30;2.42;;;28.40;56.10;;;;;;10830493;32;20047;-71
2022/08/05 03:47:20;;;;;;;3.35;2.40;;;28.40;56.10;;;;;;10830401;32;20400;-71
2022/08/05 03:53:54;;;;;;;4.30;2.10;;;28.30;56.20;;;;;;10830269;32;20392;-71
2022/08/05 04:00:01;;;;;;;4.03;2.87;;;28.20;56.50;;;;;;10830108;32;20028;-72
2022/08/05 04:06:43;;;;;;;3.92;2.67;;;28.20;56.50;;;;;;10829863;32;20352;-71
2022/08/05 04:12:46;;;;;;;4.05;2.40;;;28.20;56.50;;;;;;10829720;33;20019;-71
2022/08/05 04:18:48;;;;;;;4.72;2.87;;;28.00;56.70;;;;;;10829591;33;20316;-71
2022/08/05 04:24:50;;;;;;;3.22;2.35;;;27.90;56.80;;;;;;10830863;32;20306;-71
2022/08/05 04:30:53;;;;;;;5.00;3.17;;;27.90;56.80;;;;;;10861771;27;20039;-71
2022/08/05 04:37:14;;;;;;;8.07;3.25;;;27.90;56.80;;;;;;10875070;32;20058;-71
2022/08/05 04:43:16;;;;;;;3.42;2.42;;;27.90;56.70;;;;;;10858675;32;20336;-71
2022/08/05 04:49:18;;;;;;;4.57;2.40;;;27.80;56.80;;;;;;10871965;32;20027;-71
2022/08/05 04:55:24;;;;;;;6.18;3.05;;;27.80;56.80;;;;;;10873062;32;20050;-71
2022/08/05 05:01:26;;;;;;;4.25;2.80;;;27.90;56.70;;;;;;10872917;32;20031;-71
2022/08/05 05:07:28;;;;;;;4.15;2.67;;;28.00;56.70;;;;;;10872620;32;20031;-71
2022/08/05 05:13:30;;;;;;;4.25;3.40;;;28.00;56.60;;;;;;10872534;32;20446;-71
2022/08/05 05:19:32;;;;;;;4.40;2.72;;;28.10;56.50;;;;;;10872230;32;20084;-71
2022/08/05 05:25:35;;;;;;;5.32;3.35;;;28.20;56.30;;;;;;10867776;32;20032;-71
2022/08/05 05:31:37;;;;;;;5.10;2.78;;;28.20;56.30;;;;;;10824900;32;20024;-71
2022/08/05 05:37:51;;;;;;;4.62;3.12;;;28.20;56.30;;;;;;10833889;32;20031;-71
2022/08/05 05:43:53;;;;;;;7.22;3.67;;;28.30;56.20;;;;;;10833768;32;20021;-71
2022/08/05 05:50:05;;;;;;;2.75;2.10;;;28.50;56.10;;;;;;10834298;32;20040;-71
2022/08/05 05:56:08;;;;;;;5.32;2.70;;;28.60;55.80;;;;;;10834044;32;20050;-72
2022/08/05 06:02:10;;;;;;;4.20;2.55;;;28.50;55.80;;;;;;10833908;32;20055;-72
2022/08/05 06:08:13;;;;;;;4.70;2.85;;;28.60;55.60;;;;;;10833843;32;20047;-72
2022/08/05 06:14:15;;;;;;;3.45;2.70;;;28.70;55.60;;;;;;10865655;32;20054;-72
2022/08/05 06:20:17;;;;;;;3.45;2.35;;;28.90;55.30;;;;;;10872290;32;20066;-72
2022/08/05 06:26:19;;;;;;;2.40;1.52;;;29.00;55.00;;;;;;10870235;32;20063;-72
2022/08/05 06:32:21;;;;;;;3.00;1.90;;;29.20;54.90;;;;;;10869885;32;20020;-72
2022/08/05 06:38:23;;;;;;;5.43;2.83;;;29.30;54.70;;;;;;10869900;32;20380;-72
2022/08/05 06:44:26;;;;;;;3.12;2.22;;;29.40;54.50;;;;;;10869694;32;20089;-72
2022/08/05 06:50:28;;;;;;;3.42;2.20;;;29.60;54.30;;;;;;10868957;32;20032;-71
2022/08/05 06:56:31;;;;;;;3.72;2.62;;;29.70;54.40;;;;;;10868178;32;20071;-72
2022/08/05 07:02:44;;;;;;;3.70;2.47;;;29.80;54.30;;;;;;10867908;32;20298;-72
2022/08/05 07:08:46;;;;;;;2.87;2.17;;;29.90;54.00;;;;;;10868743;32;20062;-72
2022/08/05 07:21:10;;;;;;;4.75;1.75;;;30.00;53.70;;;;;;10868380;32;20392;-72
2022/08/05 07:27:12;;;;;;;3.15;1.95;;;30.20;53.50;;;;;;10867860;32;20031;-71
2022/08/05 07:33:14;;;;;;;1.85;1.25;;;30.30;53.50;;;;;;10867486;32;20404;-71
2022/08/05 07:39:26;;;;;;;3.10;1.92;;;30.50;53.30;;;;;;10867738;32;20337;-71
2022/08/05 07:45:28;;;;;;;3.20;1.67;;;30.60;53.20;;;;;;10867600;32;20016;-72
2022/08/05 07:51:35;;;;;;;1.95;1.23;;;30.70;52.80;;;;;;10867632;32;20019;-72
2022/08/05 07:58:06;;;;;;;3.07;2.33;;;30.80;52.70;;;;;;10867274;32;20023;-72
2022/08/05 08:04:08;;;;;;;3.35;1.90;;;30.90;52.50;;;;;;10866619;32;20390;-71
2022/08/05 08:10:10;;;;;;;1.20;0.90;;;31.00;52.50;;;;;;10867089;32;20055;-72
2022/08/05 08:16:12;;;;;;;2.30;1.60;;;31.10;52.10;;;;;;10868734;32;20046;-72
2022/08/05 08:22:14;;;;;;;2.50;1.55;;;31.20;51.80;;;;;;10866754;32;20028;-71
2022/08/05 08:28:17;;;;;;;2.15;1.30;;;31.40;51.70;;;;;;10864351;32;20050;-72
2022/08/05 08:34:20;;;;;;;2.40;1.27;;;31.50;51.30;;;;;;10864252;32;20032;-71
2022/08/05 08:40:27;;;;;;;1.87;1.60;;;31.60;51.00;;;;;;10862101;32;20404;-71
2022/08/05 08:46:31;;;;;;;1.52;1.10;;;31.70;50.40;;;;;;10866414;32;20056;-71
2022/08/05 08:52:35;;;;;;;1.77;1.45;;;31.80;50.00;;;;;;10862063;32;20015;-71
2022/08/05 08:58:50;;;;;;;1.60;1.20;;;31.90;49.50;;;;;;10862047;32;20050;-71
2022/08/05 09:04:53;;;;;;;3.97;1.85;;;32.00;48.80;;;;;;10866045;32;20046;-72
2022/08/05 09:10:56;;;;;;;2.40;1.75;;;32.10;47.70;;;;;;10866970;32;20051;-71
2022/08/05 09:17:00;;;;;;;3.70;1.75;;;32.30;47.10;;;;;;10872652;32;20019;-71
2022/08/05 09:23:29;;;;;;;3.17;2.22;;;32.50;46.60;;;;;;10872650;32;20349;-72
2022/08/05 09:29:45;;;;;;;3.87;2.50;;;32.60;46.00;;;;;;10872340;32;20020;-71
2022/08/05 09:36:04;;;;;;;5.18;3.45;;;32.90;45.70;;;;;;10883538;32;20430;-71
2022/08/05 09:42:15;;;;;;;2.83;2.17;;;33.00;45.00;;;;;;10869287;32;20316;-70
2022/08/05 09:48:38;;;;;;;3.70;2.25;;;33.10;44.70;;;;;;10871355;32;20388;-70
2022/08/05 09:54:59;;;;;;;5.07;2.62;;;33.30;44.40;;;;;;10865520;32;20051;-70
2022/08/05 10:01:05;;;;;;;7.37;2.00;;;33.50;44.10;;;;;;10870985;32;20012;-70
2022/08/05 10:07:08;;;;;;;3.25;2.10;;;33.60;43.70;;;;;;10870124;32;20384;-71
2022/08/05 10:13:10;;;;;;;4.72;2.72;;;33.80;43.20;;;;;;10870631;32;20086;-71
2022/08/05 10:19:25;;;;;;;3.62;2.35;;;33.90;43.20;;;;;;10870182;32;20392;-71
2022/08/05 10:25:46;;;;;;;1.73;1.20;;;34.00;42.50;;;;;;10869742;32;20368;-71
2022/08/05 10:31:48;;;;;;;2.42;2.22;;;34.20;42.10;;;;;;10865904;32;20015;-71
2022/08/05 10:37:59;;;;;;;2.37;1.70;;;34.40;41.70;;;;;;10869710;32;20062;-71
2022/08/05 10:44:08;;;;;;;4.50;1.80;;;34.70;41.40;;;;;;10869476;32;20055;-71
2022/08/05 10:50:12;;;;;;;3.05;1.90;;;34.80;40.90;;;;;;10869444;32;20050;-71
2022/08/05 10:56:20;;;;;;;3.67;2.45;;;34.80;40.80;;;;;;10869008;32;20062;-72
2022/08/05 11:02:22;;;;;;;2.87;2.35;;;35.10;40.20;;;;;;10869060;32;20384;-71
2022/08/05 11:08:24;;;;;;;6.12;4.87;;;35.30;39.70;;;;;;10868751;32;20024;-71
2022/08/05 11:14:35;;;;;;;5.00;2.75;;;35.60;39.20;;;;;;10868519;32;20388;-71
2022/08/05 11:20:51;;;;;;;4.00;1.65;;;35.90;38.90;;;;;;10868323;32;20440;-71
2022/08/05 11:27:28;;;;;;;3.53;2.74;;;36.20;38.30;;;;;;10793617;32;12150305;-72
2022/08/05 11:33:31;;;;;;;;;;;36.40;37.60;;;;;;10791001;33;20107;-72
2022/08/05 11:39:52;;;;;;;4.18;2.83;;;36.40;37.20;;;;;;10790608;33;19924;-71
2022/08/05 11:45:54;;;;;;;3.25;2.37;;;36.60;36.70;;;;;;10790190;33;20050;-71
2022/08/05 11:51:56;;;;;;;3.20;2.35;;;36.90;36.40;;;;;;10790103;33;20040;-71
2022/08/05 11:57:59;;;;;;;7.32;4.90;;;36.90;35.80;;;;;;10857052;32;20027;-71
2022/08/05 12:04:01;;;;;;;4.95;3.85;;;37.10;35.70;;;;;;10867202;32;20063;-72
2022/08/05 12:10:06;;;;;;;2.10;1.85;;;37.20;35.50;;;;;;10867214;32;20302;-71
2022/08/05 12:16:09;;;;;;;2.05;1.65;;;37.10;34.60;;;;;;10863900;32;20077;-72
2022/08/05 12:22:12;;;;;;;3.12;1.90;;;37.00;34.40;;;;;;10866874;32;20043;-72
2022/08/05 12:28:30;;;;;;;3.12;2.45;;;37.10;34.40;;;;;;10871780;27;20028;-71
2022/08/05 12:34:36;;;;;;;4.20;3.08;;;37.30;34.40;;;;;;10864831;32;20016;-72
2022/08/05 12:40:38;;;;;;;5.68;4.87;;;37.50;34.10;;;;;;10862342;32;20317;-72
2022/08/05 12:46:42;;;;;;;3.28;2.12;;;37.50;34.00;;;;;;10868648;32;20052;-71
2022/08/05 12:53:01;;;;;;;4.28;2.20;;;37.50;34.00;;;;;;10860512;32;20015;-71
2022/08/05 12:59:19;;;;;;;3.28;2.28;;;37.60;33.90;;;;;;10873265;32;20032;-71
2022/08/05 13:05:22;;;;;;;5.40;3.05;;;37.60;33.80;;;;;;10873067;32;20047;-72
2022/08/05 13:11:28;;;;;;;3.62;2.42;;;37.50;35.00;;;;;;10872067;32;20047;-73
2022/08/05 13:17:32;;;;;;;2.45;2.00;;;37.40;34.20;;;;;;10871096;32;20081;-71
2022/08/05 13:23:35;;;;;;;4.35;2.33;;;37.40;33.90;;;;;;10872651;32;20391;-71
2022/08/05 13:29:37;;;;;;;6.28;3.70;;;37.30;34.40;;;;;;10869228;32;20019;-72
2022/08/05 13:35:39;;;;;;;6.68;3.62;;;37.40;35.30;;;;;;10872133;32;20028;-72
2022/08/05 13:41:43;;;;;;;5.65;2.72;;;37.40;35.70;;;;;;10871677;32;20051;-72
2022/08/05 13:47:48;;;;;;;9.02;7.30;;;37.40;35.60;;;;;;10871500;32;20020;-71
2022/08/05 13:53:50;;;;;;;2.95;2.22;;;37.40;36.20;;;;;;10871228;32;20028;-72
2022/08/05 13:59:52;;;;;;;18.42;6.78;;;37.40;37.30;;;;;;10870329;32;20059;-71
2022/08/05 14:05:54;;;;;;;9.30;3.97;;;37.20;38.10;;;;;;10871135;32;20012;-72
2022/08/05 14:11:57;;;;;;;23.23;6.15;;;37.10;38.30;;;;;;10870742;32;20054;-71
2022/08/05 14:18:16;;;;;;;6.18;4.18;;;37.10;38.40;;;;;;10870455;32;20336;-71
2022/08/05 14:24:18;;;;;;;5.30;3.42;;;37.20;38.20;;;;;;10870538;32;20321;-71
2022/08/05 14:30:21;;;;;;;10.50;6.28;;;37.20;38.90;;;;;;10868859;32;20381;-70
2022/08/05 14:36:24;;;;;;;5.30;3.70;;;37.10;39.50;;;;;;10868526;32;20204;-71
2022/08/05 14:42:29;;;;;;;8.18;4.03;;;36.90;39.60;;;;;;10869607;32;20024;-71
2022/08/05 14:48:31;;;;;;;5.90;4.57;;;36.90;39.80;;;;;;10870059;32;20479;-71
2022/08/05 14:54:33;;;;;;;7.50;4.45;;;36.90;39.90;;;;;;10869605;32;20031;-71
2022/08/05 15:01:10;;;;;;;4.87;3.20;;;36.90;40.50;;;;;;10869607;32;20027;-71
2022/08/05 15:07:13;;;;;;;5.55;3.17;;;36.80;39.80;;;;;;10788013;33;20043;-70
2022/08/05 15:13:27;;;;;;;5.72;4.80;;;36.90;39.50;;;;;;10787517;32;20082;-71
2022/08/05 15:19:32;;;;;;;4.57;3.40;;;36.90;39.70;;;;;;10781547;33;20051;-71
2022/08/05 15:25:34;;;;;;;8.48;3.42;;;36.90;39.70;;;;;;10798043;32;20095;-71
2022/08/05 15:31:36;;;;;;;4.18;2.65;;;36.90;39.90;;;;;;10802972;32;20043;-71
2022/08/05 15:37:39;;;;;;;3.40;1.98;;;36.90;39.40;;;;;;10800667;32;20070;-71
2022/08/05 15:43:40;;;;;;;3.08;1.95;;;37.00;39.20;;;;;;10841945;32;20042;-71
2022/08/05 15:49:42;;;;;;;2.90;2.25;;;37.10;38.70;;;;;;10865954;32;20461;-70
2022/08/05 15:55:44;;;;;;;7.45;3.55;;;37.20;38.20;;;;;;10862804;32;20028;-70
2022/08/05 16:01:48;;;;;;;4.75;2.10;;;37.30;38.20;;;;;;10867225;32;20345;-71
2022/08/05 16:07:50;;;;;;;6.37;2.85;;;37.10;37.80;;;;;;10853268;32;20015;-72
2022/08/05 16:13:52;;;;;;;4.97;3.20;;;37.10;38.50;;;;;;10843130;32;20047;-71
2022/08/05 16:19:54;;;;;;;6.12;2.67;;;37.10;38.60;;;;;;10838902;32;20094;-70
2022/08/05 16:26:07;;;;;;;4.22;2.35;;;37.10;38.90;;;;;;10845179;32;20040;-70
2022/08/05 16:32:09;;;;;;;9.15;2.25;;;37.00;38.70;;;;;;10839574;32;20020;-71
2022/08/05 16:38:12;;;;;;;5.30;3.55;;;37.00;38.30;;;;;;10849918;32;20434;-70
2022/08/05 16:44:17;;;;;;;4.75;3.12;;;36.90;38.50;;;;;;10841387;32;20098;-70
2022/08/05 16:50:19;;;;;;;5.90;2.70;;;36.90;38.90;;;;;;10867263;32;20032;-71
2022/08/05 16:56:22;;;;;;;3.03;1.85;;;36.80;38.90;;;;;;10872583;32;20090;-71
2022/08/05 17:02:24;;;;;;;4.53;2.67;;;36.80;38.20;;;;;;10872790;32;20301;-71
2022/08/05 17:08:27;;;;;;;2.95;1.80;;;36.70;37.80;;;;;;10869432;32;20024;-71
2022/08/05 17:14:30;;;;;;;3.40;2.65;;;36.60;38.10;;;;;;10859699;32;20393;-70
2022/08/05 17:20:32;;;;;;;4.35;1.50;;;36.50;38.20;;;;;;10859535;32;20027;-70
2022/08/05 17:26:35;;;;;;;3.67;2.20;;;36.60;37.60;;;;;;10838590;32;20035;-71
2022/08/05 17:32:37;;;;;;;2.30;1.33;;;36.60;37.50;;;;;;10835000;32;20381;-71
2022/08/05 17:38:39;;;;;;;1.73;1.27;;;36.80;37.80;;;;;;10834657;32;20032;-70
2022/08/05 17:45:01;;;;;;;3.25;2.65;;;37.20;37.20;;;;;;10834823;32;20046;-70
2022/08/05 17:51:04;;;;;;;1.95;1.15;;;37.50;36.70;;;;;;10834560;32;20024;-70
2022/08/05 17:57:06;;;;;;;1.52;1.00;;;37.40;37.30;;;;;;10834350;32;20047;-71
2022/08/05 18:03:07;;;;;;;0.95;0.70;;;38.10;36.40;;;;;;10834274;32;20336;-71
2022/08/05 18:09:32;;;;;;;1.02;0.62;;;38.40;36.00;;;;;;10829886;33;20306;-71
2022/08/05 18:15:34;;;;;;;1.48;0.88;;;38.00;36.40;;;;;;10829527;32;20058;-71
2022/08/05 18:21:36;;;;;;;1.02;0.60;;;37.10;37.70;;;;;;10833622;32;20020;-71
2022/08/05 18:27:38;;;;;;;7.18;0.77;;;36.40;38.70;;;;;;10833273;32;20028;-71
2022/08/05 18:33:40;;;;;;;1.12;0.85;;;35.90;39.40;;;;;;10832691;32;20058;-71
2022/08/05 18:39:42;;;;;;;4.18;0.90;;;35.50;39.90;;;;;;10832782;32;20074;-71
2022/08/05 18:45:44;;;;;;;2.75;1.10;;;35.20;40.40;;;;;;10832207;32;20008;-71
2022/08/05 18:58:08;;;;;;;3.80;1.00;;;34.80;41.00;;;;;;10869184;32;20422;-70
2022/08/05 19:04:10;;;;;;;1.10;0.80;;;34.50;42.00;;;;;;10866731;32;20047;-70
2022/08/05 19:10:13;;;;;;;2.15;0.77;;;34.30;42.30;;;;;;10868836;32;20051;-70
2022/08/05 19:16:40;;;;;;;2.35;1.40;;;34.30;42.40;;;;;;10868539;32;20058;-70
2022/08/05 19:22:43;;;;;;;12.77;0.95;;;34.20;42.70;;;;;;10679960;33;20043;-70
2022/08/05 19:28:45;;;;;;;1.23;0.93;;;34.10;43.00;;;;;;10681197;33;20033;-70
2022/08/05 19:34:49;;;;;;;1.42;0.93;;;33.90;43.10;;;;;;10682102;33;20025;-70
2022/08/05 19:40:51;;;;;;;2.22;1.27;;;33.80;43.40;;;;;;10679409;33;20083;-70
2022/08/05 19:46:55;;;;;;;2.17;0.93;;;33.70;43.50;;;;;;10681660;33;20022;-70
2022/08/05 19:53:00;;;;;;;1.40;0.90;;;33.60;44.00;;;;;;10681457;33;20040;-70
2022/08/05 19:59:12;;;;;;;1.90;1.05;;;33.50;44.50;;;;;;10812162;32;20016;-70
2022/08/05 20:05:15;;;;;;;1.20;0.70;;;33.40;45.00;;;;;;10867253;32;20024;-70
2022/08/05 20:11:18;;;;;;;0.95;0.85;;;33.30;45.60;;;;;;10867121;32;20042;-69
2022/08/05 20:17:20;;;;;;;3.35;1.25;;;33.00;47.10;;;;;;10866930;32;20397;-69
2022/08/05 20:23:27;;;;;;;2.62;1.27;;;32.90;47.50;;;;;;10866867;32;20023;-69
2022/08/05 20:29:36;;;;;;;1.43;0.90;;;32.90;47.60;;;;;;10870794;27;20035;-69
2022/08/05 20:35:38;;;;;;;0.88;0.60;;;32.90;47.60;;;;;;10866191;32;20504;-70
2022/08/05 20:41:41;;;;;;;2.30;1.23;;;32.90;47.70;;;;;;10866607;32;20028;-70
2022/08/05 20:47:43;;;;;;;1.58;0.85;;;32.80;47.70;;;;;;10866732;32;20048;-70
2022/08/05 20:53:45;;;;;;;0.90;0.85;;;32.70;47.60;;;;;;10866491;32;20397;-70
2022/08/05 20:59:48;;;;;;;1.65;0.90;;;32.60;47.70;;;;;;10866268;32;20020;-69
2022/08/05 21:05:51;;;;;;;1.20;1.00;;;32.50;47.80;;;;;;10866248;32;20020;-70
2022/08/05 21:11:53;;;;;;;1.52;1.02;;;32.40;47.90;;;;;;10873127;32;20020;-70
2022/08/05 21:17:55;;;;;;;2.40;1.15;;;32.30;47.90;;;;;;10871985;32;20047;-70
2022/08/05 21:23:57;;;;;;;1.83;1.00;;;32.30;48.10;;;;;;10872732;32;20324;-69
2022/08/05 21:30:00;;;;;;;2.53;1.30;;;32.30;48.50;;;;;;10872398;32;20038;-69
2022/08/05 21:36:24;;;;;;;1.45;1.10;;;32.20;48.60;;;;;;10871585;32;20081;-69
2022/08/05 21:42:26;;;;;;;3.60;1.05;;;32.20;48.60;;;;;;10871976;32;20036;-69
2022/08/05 21:48:28;;;;;;;3.87;1.20;;;32.00;48.80;;;;;;10871428;32;20020;-69
2022/08/05 21:54:30;;;;;;;2.05;1.27;;;32.10;48.80;;;;;;10871727;32;20020;-70
2022/08/05 22:00:32;;;;;;;1.85;1.20;;;31.90;48.80;;;;;;10871391;32;20077;-69
2022/08/05 22:06:34;;;;;;;2.95;1.10;;;31.80;48.90;;;;;;10867023;32;20332;-69
2022/08/05 22:12:38;;;;;;;2.45;1.33;;;31.80;49.00;;;;;;10870911;32;20024;-70
2022/08/05 22:18:40;;;;;;;3.55;1.05;;;31.80;49.10;;;;;;10869800;32;20396;-69
2022/08/05 22:31:50;;;;;;;1.73;1.00;;;31.50;49.20;;;;;;10870379;32;20028;-70
2022/08/05 22:37:52;;;;;;;2.22;1.17;;;31.40;49.50;;;;;;10870180;32;20367;-70
2022/08/05 22:43:55;;;;;;;2.37;1.40;;;31.30;49.50;;;;;;10868986;32;20384;-70
2022/08/05 22:50:01;;;;;;;2.22;1.50;;;31.30;49.50;;;;;;10869586;32;20036;-69
2022/08/05 22:56:03;;;;;;;2.42;1.27;;;31.30;49.50;;;;;;10869410;32;20027;-70
2022/08/05 23:02:06;;;;;;;2.03;1.12;;;31.30;49.50;;;;;;10867828;32;20028;-69
2022/08/05 23:08:11;;;;;;;8.50;1.98;;;31.20;49.50;;;;;;10869060;32;20046;-69
2022/08/05 23:14:13;;;;;;;2.37;1.50;;;31.30;49.70;;;;;;10868661;32;20075;-69
2022/08/05 23:20:15;;;;;;;1.77;1.27;;;31.30;49.90;;;;;;10855433;32;20434;-69
2022/08/05 23:26:24;;;;;;;2.33;1.50;;;31.30;50.30;;;;;;10868370;32;20032;-69
2022/08/05 23:32:26;;;;;;;1.90;1.27;;;31.30;50.50;;;;;;10864475;32;20020;-69
2022/08/05 23:38:28;;;;;;;1.73;1.08;;;31.10;50.70;;;;;;10867942;32;20054;-69
2022/08/05 23:44:31;;;;;;;1.75;1.30;;;31.10;51.30;;;;;;10867992;32;20042;-69
2022/08/05 23:50:32;;;;;;;1.77;1.10;;;31.00;51.80;;;;;;10867577;32;20236;-70
2022/08/05 23:56:57;;;;;;;4.40;2.12;;;30.80;51.70;;;;;;10866602;32;20024;-69
